Time;durP1;ratioP1;P1;durP2;ratioP2;P2;SDS_P1;SDS_P2;PMS_P1;PMS_P2;Temp;Humidity;BMP_temperature;BMP_pressure;BME280_temperature;BME280_humidity;BME280_pressure;Samples;Min_cycle;Max_cycle;Signal;HPM_P1;HPM_P2
2023/03/14 00:02:19;;;;;;;3.07;2.60;;;;;;;1.95;nan;-23870.16;5007630;28;20181;-74
2023/03/14 00:04:44;;;;;;;2.20;2.00;;;;;;;2.05;nan;-23873.03;5014213;28;20667;-75
2023/03/14 00:07:13;;;;;;;3.07;2.70;;;;;;;1.96;nan;-23870.59;5014378;28;20206;-75
2023/03/14 00:09:38;;;;;;;3.07;2.60;;;;;;;1.91;nan;-23869.16;5014138;28;20296;-75
2023/03/14 00:12:04;;;;;;;4.37;2.13;;;;;;;1.52;nan;-23858.16;5007690;28;20194;-73
2023/03/14 00:14:31;;;;;;;1.90;1.80;;;;;;;1.61;nan;-23860.59;5015303;28;20182;-74
2023/03/14 00:16:56;;;;;;;5.80;2.60;;;;;;;1.36;nan;-23853.59;5029398;28;20187;-72
2023/03/14 00:19:22;;;;;;;2.90;1.67;;;;;;;1.31;nan;-23852.16;5045493;28;20199;-73
2023/03/14 00:21:47;;;;;;;2.27;2.07;;;;;;;1.39;nan;-23854.31;5014225;28;20256;-76
2023/03/14 00:24:13;;;;;;;2.67;2.27;;;;;;;1.50;nan;-23857.59;5013242;28;20256;-71
2023/03/14 00:26:38;;;;;;;2.60;1.83;;;;;;;1.36;nan;-23853.44;5013204;28;20648;-74
2023/03/14 00:29:04;;;;;;;3.93;2.63;;;;;;;1.46;nan;-23856.31;5014132;28;20618;-73
2023/03/14 00:31:29;;;;;;;3.00;2.37;;;;;;;1.14;nan;-23847.31;5029061;28;20272;-73
2023/03/14 00:33:55;;;;;;;3.13;2.30;;;;;;;1.07;nan;-23845.31;5013117;28;20555;-74
2023/03/14 00:36:21;;;;;;;3.93;2.37;;;;;;;1.16;nan;-23847.88;5013969;28;20182;-75
2023/03/14 00:38:49;;;;;;;2.37;2.17;;;;;;;1.33;nan;-23852.88;5013853;28;20177;-72
2023/03/14 00:41:25;;;;;;;2.93;2.63;;;;;;;1.40;nan;-23854.75;5045443;28;20555;-74
2023/03/14 00:43:50;;;;;;;3.93;2.70;;;;;;;1.23;nan;-23850.03;5013655;28;20683;-74
2023/03/14 00:46:16;;;;;;;3.10;2.57;;;;;;;1.04;nan;-23844.44;5011551;28;20188;-72
2023/03/14 00:48:41;;;;;;;2.43;2.23;;;;;;;1.07;nan;-23845.44;5023823;28;20228;-76
2023/03/14 00:51:08;;;;;;;3.27;2.60;;;;;;;0.97;nan;-23842.44;5013516;28;20193;-72
2023/03/14 00:53:38;;;;;;;4.47;2.50;;;;;;;0.92;nan;-23841.16;5013605;28;20183;-73
2023/03/14 00:56:06;;;;;;;3.50;2.33;;;;;;;1.01;nan;-23843.59;5013475;28;20189;-74
2023/03/14 00:58:31;;;;;;;6.20;2.90;;;;;;;1.11;nan;-23846.44;5012003;28;20268;-74
2023/03/14 01:00:57;;;;;;;2.23;2.07;;;;;;;0.94;nan;-23841.59;5012823;28;20183;-72
2023/03/14 01:03:23;;;;;;;4.33;3.13;;;;;;;0.65;nan;-23833.56;5011547;28;20203;-74
2023/03/14 01:05:50;;;;;;;2.60;2.40;;;;;;;0.87;nan;-23839.88;5013066;28;20663;-74
2023/03/14 01:08:15;;;;;;;4.20;2.90;;;;;;;0.85;nan;-23839.16;5028281;28;20302;-73
2023/03/14 01:10:40;;;;;;;4.47;2.90;;;;;;;0.56;nan;-23831.00;5012950;28;20606;-73
2023/03/14 01:13:06;;;;;;;3.13;2.80;;;;;;;0.91;nan;-23840.72;5012761;28;20173;-75
2023/03/14 01:15:33;;;;;;;4.20;2.83;;;;;;;0.91;nan;-23840.88;5012721;28;20674;-74
2023/03/14 01:17:58;;;;;;;4.33;2.63;;;;;;;0.89;nan;-23840.44;5028510;28;20176;-74
2023/03/14 01:20:24;;;;;;;5.10;2.57;;;;;;;0.94;nan;-23841.59;5029409;28;20651;-74
2023/03/14 01:22:49;;;;;;;4.03;3.47;;;;;;;0.95;nan;-23842.00;5012744;28;20652;-74
2023/03/14 01:25:16;;;;;;;3.50;2.87;;;;;;;0.64;nan;-23833.16;5028123;28;20183;-71
2023/03/14 01:27:42;;;;;;;9.33;2.30;;;;;;;0.78;nan;-23837.16;5011341;28;20598;-73
2023/03/14 01:30:08;;;;;;;3.10;2.33;;;;;;;0.90;nan;-23840.59;5011160;28;20172;-73
2023/03/14 01:32:34;;;;;;;4.27;2.53;;;;;;;1.06;nan;-23845.03;5012212;28;20683;-75
2023/03/14 01:34:59;;;;;;;2.67;2.03;;;;;;;1.11;nan;-23846.44;5011266;28;20168;-74
2023/03/14 01:37:25;;;;;;;3.30;2.67;;;;;;;0.68;nan;-23834.44;5011589;28;20215;-72
2023/03/14 01:39:50;;;;;;;6.23;2.50;;;;;;;0.83;nan;-23838.72;5010837;28;20180;-73
2023/03/14 01:42:16;;;;;;;9.50;2.57;;;;;;;0.69;nan;-23834.56;5012727;28;20185;-74
2023/03/14 01:44:53;;;;;;;4.77;3.03;;;;;;;1.02;nan;-23843.88;5012214;28;20179;-73
2023/03/14 01:47:19;;;;;;;4.07;2.67;;;;;;;0.99;nan;-23843.00;5012188;28;20689;-73
2023/03/14 01:49:47;;;;;;;2.70;2.30;;;;;;;1.03;nan;-23844.16;5012339;28;20184;-72
2023/03/14 01:52:13;;;;;;;5.17;3.33;;;;;;;1.07;nan;-23845.31;5011965;28;20201;-74
2023/03/14 01:54:50;;;;;;;3.00;2.37;;;;;;;0.91;nan;-23840.88;5011930;28;20279;-74
2023/03/14 01:57:40;;;;;;;10.20;3.13;;;;;;;0.95;nan;-23841.88;5010487;28;20282;-73
2023/03/14 02:00:14;;;;;;;6.90;3.47;;;;;;;0.74;nan;-23836.16;5010764;28;20215;-74
2023/03/14 02:02:55;;;;;;;5.57;2.80;;;;;;;0.65;nan;-23833.44;5010210;28;20250;-72
2023/03/14 02:05:27;;;;;;;7.77;3.53;;;;;;;0.73;nan;-23835.72;5027444;28;20176;-74
2023/03/14 02:07:56;;;;;;;2.93;2.20;;;;;;;0.96;nan;-23842.16;5012570;28;20672;-75
2023/03/14 02:10:26;;;;;;;5.60;3.20;;;;;;;0.59;nan;-23831.84;5014261;28;20168;-72
2023/03/14 02:12:55;;;;;;;2.80;2.37;;;;;;;0.73;nan;-23835.88;5026857;28;20635;-74
2023/03/14 02:15:21;;;;;;;4.27;2.67;;;;;;;0.68;nan;-23834.44;5027097;28;20271;-72
2023/03/14 02:17:47;;;;;;;7.73;3.20;;;;;;;0.62;nan;-23832.72;5041889;28;20176;-73
2023/03/14 02:20:24;;;;;;;5.60;3.70;;;;;;;0.97;nan;-23842.44;5026358;28;20195;-72
2023/03/14 02:22:52;;;;;;;4.90;3.00;;;;;;;0.68;nan;-23834.44;5032679;28;20171;-74
2023/03/14 02:25:50;;;;;;;4.27;3.47;;;;;;;0.52;nan;-23829.72;5012856;28;20635;-74
2023/03/14 02:28:16;;;;;;;4.53;3.17;;;;;;;0.46;nan;-23828.13;5028364;28;20206;-73
2023/03/14 02:30:42;;;;;;;5.87;3.83;;;;;;;0.60;nan;-23832.13;5012263;28;20263;-74
2023/03/14 02:33:14;;;;;;;6.83;3.10;;;;;;;0.24;nan;-23821.97;5009488;28;20222;-75
2023/03/14 02:35:56;;;;;;;4.70;2.80;;;;;;;0.73;nan;-23835.88;5011878;28;20226;-74
2023/03/14 02:38:52;;;;;;;3.97;2.70;;;;;;;0.74;nan;-23836.16;5012022;28;20217;-75
2023/03/14 02:41:18;;;;;;;7.33;3.37;;;;;;;0.29;nan;-23823.28;5018711;28;20198;-74
2023/03/14 02:43:43;;;;;;;5.07;3.23;;;;;;;0.35;nan;-23825.13;5012348;28;20529;-73
2023/03/14 02:46:12;;;;;;;4.80;3.33;;;;;;;0.59;nan;-23831.72;5011741;28;20225;-73
2023/03/14 02:48:47;;;;;;;4.13;2.57;;;;;;;0.56;nan;-23831.00;5014238;28;20208;-74
2023/03/14 02:51:14;;;;;;;2.60;2.40;;;;;;;0.62;nan;-23832.72;5015386;28;20287;-72
2023/03/14 02:53:41;;;;;;;3.00;2.70;;;;;;;0.44;nan;-23827.56;5015740;28;20180;-74
2023/03/14 02:56:07;;;;;;;4.77;3.37;;;;;;;0.53;nan;-23830.13;5015840;28;20168;-74
2023/03/14 02:58:33;;;;;;;3.17;2.17;;;;;;;0.23;nan;-23821.69;5016284;28;20314;-74
2023/03/14 03:01:00;;;;;;;5.73;2.90;;;;;;;0.18;nan;-23820.13;5013304;28;20193;-73
2023/03/14 03:03:25;;;;;;;3.63;2.80;;;;;;;-0.07;nan;-23813.09;5015801;28;20197;-75
2023/03/14 03:05:53;;;;;;;4.67;2.23;;;;;;;0.28;nan;-23822.97;5013851;28;20180;-74
2023/03/14 03:08:19;;;;;;;2.43;2.23;;;;;;;0.24;nan;-23821.84;5015115;28;20207;-74
2023/03/14 03:10:45;;;;;;;5.73;3.13;;;;;;;-0.12;nan;-23811.81;5015227;28;20173;-73
2023/03/14 03:13:10;;;;;;;4.37;2.53;;;;;;;-0.17;nan;-23810.25;5030380;28;20186;-72
2023/03/14 03:15:36;;;;;;;4.43;2.43;;;;;;;-0.25;nan;-23808.09;5015614;28;20186;-74
2023/03/14 03:18:01;;;;;;;5.03;3.23;;;;;;;-0.43;nan;-23802.94;5014902;28;20657;-75
2023/03/14 03:20:27;;;;;;;5.27;3.07;;;;;;;-0.23;nan;-23808.66;5015014;28;20615;-73
2023/03/14 03:22:52;;;;;;;8.40;3.60;;;;;;;-0.46;nan;-23802.22;5030109;28;20607;-72
2023/03/14 03:25:18;;;;;;;4.47;2.90;;;;;;;-0.07;nan;-23813.09;5046634;28;20184;-74
2023/03/14 03:27:43;;;;;;;3.07;2.47;;;;;;;-0.23;nan;-23808.66;5015086;28;20202;-73
2023/03/14 03:30:09;;;;;;;4.17;2.90;;;;;;;-0.16;nan;-23810.66;5015429;28;20192;-73
2023/03/14 03:32:35;;;;;;;3.93;2.83;;;;;;;-0.11;nan;-23812.09;5016833;28;20190;-71
2023/03/14 03:35:03;;;;;;;6.17;2.87;;;;;;;-0.46;nan;-23802.06;5014733;28;20188;-74
2023/03/14 03:37:30;;;;;;;4.10;3.13;;;;;;;-0.32;nan;-23806.09;5014788;28;20178;-75
2023/03/14 03:39:56;;;;;;;8.80;3.27;;;;;;;-0.23;nan;-23808.66;5013638;28;20178;-75
2023/03/14 03:42:21;;;;;;;3.57;2.97;;;;;;;-0.26;nan;-23807.81;5015003;28;20178;-72
2023/03/14 03:44:47;;;;;;;3.13;2.83;;;;;;;-0.48;nan;-23801.50;5029738;28;20192;-73
2023/03/14 03:47:12;;;;;;;2.80;2.60;;;;;;;-0.33;nan;-23805.66;5014568;28;20205;-73
2023/03/14 03:49:38;;;;;;;9.63;3.53;;;;;;;-0.45;nan;-23802.34;5013055;28;20179;-74
2023/03/14 03:52:03;;;;;;;4.07;2.93;;;;;;;-0.42;nan;-23803.06;5014199;28;20177;-73
2023/03/14 03:54:29;;;;;;;5.93;2.93;;;;;;;-0.80;nan;-23792.31;5015079;28;20165;-74
2023/03/14 03:56:55;;;;;;;4.60;3.73;;;;;;;-0.36;nan;-23804.78;5014573;28;20283;-73
2023/03/14 03:59:20;;;;;;;3.77;3.10;;;;;;;-0.66;nan;-23796.34;5013357;28;20186;-74
2023/03/14 04:01:46;;;;;;;7.27;3.93;;;;;;;-0.27;nan;-23807.50;5014059;28;20170;-73
2023/03/14 04:04:12;;;;;;;9.57;3.43;;;;;;;-0.67;nan;-23796.19;5014089;28;20174;-73
2023/03/14 04:06:37;;;;;;;10.47;3.50;;;;;;;-0.19;nan;-23809.66;5045870;28;20691;-71
2023/03/14 04:09:03;;;;;;;2.87;1.93;;;;;;;-0.20;nan;-23809.53;5014331;28;20184;-72
2023/03/14 04:11:29;;;;;;;5.00;3.60;;;;;;;-0.24;nan;-23808.38;5013792;28;20253;-74
2023/03/14 04:13:55;;;;;;;6.23;3.60;;;;;;;-0.08;nan;-23812.97;5014135;28;20296;-73
2023/03/14 04:16:25;;;;;;;7.87;3.93;;;;;;;-0.15;nan;-23810.97;5013972;28;20184;-74
2023/03/14 04:18:51;;;;;;;3.27;2.97;;;;;;;-0.14;nan;-23811.09;5012630;28;20191;-72
2023/03/14 04:21:17;;;;;;;5.90;3.57;;;;;;;-0.32;nan;-23806.09;5023420;28;20577;-75
2023/03/14 04:23:42;;;;;;;6.33;2.90;;;;;;;-0.21;nan;-23809.09;4999531;28;20204;-75
2023/03/14 04:26:08;;;;;;;3.63;3.13;;;;;;;-0.45;nan;-23802.50;5000684;28;20571;-76
2023/03/14 04:28:35;;;;;;;4.47;2.97;;;;;;;-0.45;nan;-23802.50;5014570;28;20211;-76
2023/03/14 04:31:11;;;;;;;3.50;3.20;;;;;;;-0.12;nan;-23811.81;5000076;28;20183;-76
2023/03/14 04:33:37;;;;;;;9.83;2.33;;;;;;;-0.43;nan;-23802.78;5004647;28;20188;-76
2023/03/14 04:36:04;;;;;;;5.77;3.43;;;;;;;0.10;100.00;55367.25;5014514;28;20190;-74
2023/03/14 04:38:30;;;;;;;4.73;3.10;;;;;;;0.10;nan;-23817.81;5000614;28;20217;-72
2023/03/14 04:40:55;;;;;;;6.77;3.83;;;;;;;-0.37;nan;-23804.50;5000294;28;20548;-73
2023/03/14 04:43:21;;;;;;;18.83;3.73;;;;;;;-0.21;nan;-23809.09;4998889;28;20569;-73
2023/03/14 04:45:46;;;;;;;3.07;2.67;;;;;;;-0.09;nan;-23812.66;4999904;28;20183;-74
2023/03/14 04:48:12;;;;;;;4.90;3.40;;;;;;;0.15;nan;-23819.41;4997445;28;20215;-74
2023/03/14 04:50:38;;;;;;;4.53;2.80;;;;;;;0.28;nan;-23822.97;4998497;28;20182;-73
2023/03/14 04:53:04;;;;;;;4.90;2.97;;;;;;;0.27;nan;-23822.69;5000138;28;20248;-74
2023/03/14 04:55:32;;;;;;;4.30;3.27;;;;;;;0.36;nan;-23825.28;4999390;28;20196;-75
2023/03/14 04:57:57;;;;;;;6.33;3.37;;;;;;;0.63;nan;-23832.84;5030390;28;20310;-74
2023/03/14 05:00:23;;;;;;;5.10;3.90;;;;;;;1.00;nan;-23843.31;5013794;28;20196;-75
2023/03/14 05:02:48;;;;;;;5.70;3.27;;;;;;;1.01;nan;-23843.72;4997374;28;20227;-72
2023/03/14 05:05:14;;;;;;;7.17;3.57;;;;;;;1.01;nan;-23843.59;4999547;28;20176;-71
2023/03/14 05:07:39;;;;;;;8.00;4.33;;;;;;;1.18;nan;-23848.44;5013402;28;20208;-75
2023/03/14 05:10:05;;;;;;;11.43;4.10;;;;;;;1.12;nan;-23846.88;4999025;28;20592;-76
2023/03/14 05:12:30;;;;;;;5.37;3.43;;;;;;;1.41;nan;-23855.03;5014194;28;20275;-71
2023/03/14 05:14:56;;;;;;;7.67;4.50;;;;;;;1.26;nan;-23850.72;5012581;28;20203;-73
2023/03/14 05:17:21;;;;;;;8.50;4.27;;;;;;;1.16;nan;-23848.03;5019759;28;20218;-74
2023/03/14 05:19:47;;;;;;;4.83;3.37;;;;;;;0.87;nan;-23839.72;5009372;28;20199;-74
2023/03/14 05:22:12;;;;;;;6.10;3.47;;;;;;;0.98;nan;-23842.88;5006596;28;20195;-75
2023/03/14 05:24:38;;;;;;;13.97;5.57;;;;;;;1.28;nan;-23851.31;5013124;28;20187;-78
2023/03/14 05:27:04;;;;;;;4.47;3.63;;;;;;;1.45;nan;-23856.16;5012572;28;20259;-73
2023/03/14 05:29:30;;;;;;;3.53;2.67;;;;;;;1.32;nan;-23852.59;5044396;28;20341;-80
2023/03/14 05:31:55;;;;;;;4.93;3.50;;;;;;;1.44;nan;-23855.88;5011076;28;21192;-75
2023/03/14 05:34:21;;;;;;;5.53;3.30;;;;;;;1.59;nan;-23860.16;5009836;28;20195;-81
2023/03/14 05:36:46;;;;;;;7.57;4.57;;;;;;;1.75;nan;-23864.59;5012418;28;20273;-78
2023/03/14 05:39:12;;;;;;;5.50;3.40;;;;;;;1.81;nan;-23866.16;5043978;28;20212;-77
2023/03/14 05:41:37;;;;;;;5.73;3.47;;;;;;;1.92;nan;-23869.47;5043895;28;20227;-79
2023/03/14 05:44:03;;;;;;;4.47;3.00;;;;;;;1.86;nan;-23867.59;5014218;28;20185;-82
2023/03/14 05:46:30;;;;;;;13.57;3.30;;;;;;;1.83;nan;-23866.88;5010381;28;20181;-75
2023/03/14 05:48:57;;;;;;;7.53;3.67;;;;;;;2.16;nan;-23876.16;5005456;28;20190;-76
2023/03/14 05:51:22;;;;;;;9.00;3.70;;;;;;;2.71;nan;-23891.59;5011640;28;20272;-77
2023/03/14 05:53:47;;;;;;;6.80;3.97;;;;;;;2.46;nan;-23884.59;5011240;28;20275;-77
2023/03/14 05:56:13;;;;;;;8.57;4.57;;;;;;;2.37;nan;-23882.03;5009611;28;20190;-75
2023/03/14 05:58:38;;;;;;;6.20;3.43;;;;;;;2.80;nan;-23894.31;5011496;28;20180;-74
2023/03/14 06:01:05;;;;;;;7.00;3.40;;;;;;;2.44;nan;-23884.16;5010096;28;20713;-77
2023/03/14 06:03:31;;;;;;;9.63;5.07;;;;;;;2.97;nan;-23899.16;5026695;28;20263;-76
2023/03/14 06:05:57;;;;;;;4.97;3.67;;;;;;;2.57;nan;-23887.88;5010319;28;20176;-76
2023/03/14 06:08:23;;;;;;;8.80;3.77;;;;;;;2.70;nan;-23891.31;5011452;28;20215;-76
2023/03/14 06:10:48;;;;;;;7.47;3.67;;;;;;;2.45;nan;-23884.44;5011678;28;20182;-74
2023/03/14 06:13:15;;;;;;;4.63;3.07;;;;;;;2.40;nan;-23882.88;5026373;28;20180;-77
2023/03/14 06:15:41;;;;;;;4.77;3.67;;;;;;;2.25;nan;-23878.75;5009796;28;20187;-77
2023/03/14 06:18:06;;;;;;;7.87;4.53;;;;;;;2.46;nan;-23884.75;5009650;28;20194;-84
2023/03/14 06:20:33;;;;;;;8.17;4.13;;;;;;;2.41;nan;-23883.31;5010139;28;20187;-80
2023/03/14 06:22:58;;;;;;;7.23;3.70;;;;;;;2.73;nan;-23892.16;5008825;28;20184;-72
2023/03/14 06:25:24;;;;;;;10.10;4.10;;;;;;;2.60;nan;-23888.59;5010129;28;20259;-74
2023/03/14 06:27:49;;;;;;;6.57;4.43;;;;;;;2.81;nan;-23894.44;5011619;28;20196;-73
2023/03/14 06:30:14;;;;;;;8.87;4.37;;;;;;;3.43;nan;-23912.13;5011652;28;20622;-76
2023/03/14 06:32:40;;;;;;;7.93;4.13;;;;;;;3.67;nan;-23918.81;5011203;28;20180;-74
2023/03/14 06:35:06;;;;;;;6.83;3.70;;;;;;;3.37;nan;-23910.28;5026663;28;20202;-73
2023/03/14 06:37:31;;;;;;;8.57;4.77;;;;;;;3.29;nan;-23908.13;5011821;28;20182;-74
2023/03/14 06:39:56;;;;;;;13.43;4.83;;;;;;;4.23;nan;-23934.63;5011150;28;20199;-75
2023/03/14 06:42:22;;;;;;;11.50;4.53;;;;;;;4.43;nan;-23940.34;5026549;28;20280;-75
2023/03/14 06:44:48;;;;;;;8.00;4.83;;;;;;;4.63;nan;-23945.75;5026162;28;20172;-75
2023/03/14 06:47:13;;;;;;;8.27;5.00;;;;;;;4.71;nan;-23948.03;5011405;28;20246;-74
2023/03/14 06:49:39;;;;;;;7.30;4.27;;;;;;;4.50;nan;-23942.03;5012387;28;20187;-74
2023/03/14 06:52:04;;;;;;;6.93;4.57;;;;;;;4.63;nan;-23945.88;5011567;28;20172;-74
2023/03/14 06:54:30;;;;;;;7.23;4.87;;;;;;;5.15;nan;-23960.53;5011297;28;20184;-75
2023/03/14 06:56:55;;;;;;;12.00;4.50;;;;;;;5.06;nan;-23957.84;5009896;28;20781;-74
2023/03/14 06:59:21;;;;;;;10.47;5.37;;;;;;;4.81;nan;-23950.84;5011104;28;20616;-75
2023/03/14 07:01:47;;;;;;;8.53;4.97;;;;;;;4.88;nan;-23952.84;5011725;28;20164;-74
2023/03/14 07:04:13;;;;;;;9.50;6.13;;;;;;;4.63;nan;-23945.75;5026296;28;20630;-74
2023/03/14 07:06:43;;;;;;;11.37;5.87;;;;;;;5.13;nan;-23959.97;5010633;28;20200;-75
2023/03/14 07:09:10;;;;;;;10.20;5.77;;;;;;;5.26;nan;-23963.53;5008884;28;20627;-76
2023/03/14 07:11:35;;;;;;;9.70;5.60;;;;;;;5.14;nan;-23960.25;5010766;28;20188;-75
2023/03/14 07:14:01;;;;;;;9.20;5.27;;;;;;;5.13;nan;-23959.97;5010631;28;20218;-75
2023/03/14 07:16:28;;;;;;;9.30;4.90;;;;;;;5.80;nan;-23978.72;5010175;28;20242;-75
2023/03/14 07:18:53;;;;;;;6.33;4.67;;;;;;;5.79;nan;-23978.44;5011379;28;20226;-75
2023/03/14 07:21:19;;;;;;;8.87;4.37;;;;;;;6.02;nan;-23984.97;5026492;28;20297;-75
2023/03/14 07:23:44;;;;;;;10.37;4.93;;;;;;;6.22;nan;-23990.53;5011132;28;20199;-73
2023/03/14 07:26:10;;;;;;;11.00;5.37;;;;;;;6.18;nan;-23989.53;5010938;28;20601;-74
2023/03/14 07:28:35;;;;;;;9.03;5.80;;;;;;;6.39;nan;-23995.22;5010857;28;20241;-76
2023/03/14 07:31:01;;;;;;;7.60;4.63;;;;;;;6.50;nan;-23998.34;5011388;28;20195;-75
2023/03/14 07:33:26;;;;;;;26.60;5.10;;;;;;;6.46;nan;-23997.19;5011364;28;20183;-75
2023/03/14 07:35:51;;;;;;;7.50;4.67;;;;;;;6.57;nan;-24000.31;5013414;28;20530;-75
2023/03/14 07:38:17;;;;;;;6.07;4.30;;;;;;;6.52;nan;-23999.03;5012802;28;20184;-75
2023/03/14 07:40:43;;;;;;;11.27;4.93;;;;;;;6.36;nan;-23994.34;5014315;28;20180;-73
2023/03/14 07:43:12;;;;;;;7.67;4.83;;;;;;;6.42;nan;-23996.06;5012485;28;20183;-73
2023/03/14 07:45:38;;;;;;;9.80;4.00;;;;;;;6.79;nan;-24006.56;5013257;28;20191;-73
2023/03/14 07:48:03;;;;;;;9.20;4.97;;;;;;;6.83;nan;-24007.56;5013979;28;20204;-74
2023/03/14 07:50:29;;;;;;;8.67;4.20;;;;;;;6.79;nan;-24006.44;5007716;28;20188;-75
2023/03/14 07:52:55;;;;;;;9.17;5.10;;;;;;;7.04;nan;-24013.66;5013586;28;20188;-75
2023/03/14 07:55:22;;;;;;;8.00;4.43;;;;;;;7.02;nan;-24013.09;5013469;28;20306;-74
2023/03/14 07:57:47;;;;;;;5.77;3.97;;;;;;;7.14;nan;-24016.22;5014367;28;20232;-74
2023/03/14 08:00:14;;;;;;;7.33;4.60;;;;;;;7.26;nan;-24019.75;5014761;28;20544;-74
2023/03/14 08:02:40;;;;;;;7.90;4.17;;;;;;;7.80;nan;-24034.91;5013950;28;20180;-75
2023/03/14 08:05:06;;;;;;;9.63;5.20;;;;;;;7.70;nan;-24031.94;5029665;28;20226;-74
2023/03/14 08:07:31;;;;;;;8.33;4.20;;;;;;;8.21;nan;-24046.41;5012588;28;20216;-75
2023/03/14 08:09:57;;;;;;;9.87;4.47;;;;;;;8.09;nan;-24042.84;5029036;28;20271;-75
2023/03/14 08:12:22;;;;;;;7.03;4.20;;;;;;;8.47;nan;-24053.63;5012607;28;20226;-77
2023/03/14 08:14:48;;;;;;;8.63;4.90;;;;;;;8.51;nan;-24054.75;5029264;28;20183;-75
2023/03/14 08:17:13;;;;;;;15.23;4.30;;;;;;;8.70;nan;-24060.13;5012625;28;20184;-75
2023/03/14 08:19:40;;;;;;;9.93;4.83;;;;;;;8.64;nan;-24058.44;5014141;28;20214;-74
2023/03/14 08:22:05;;;;;;;11.53;5.07;;;;;;;8.87;nan;-24064.78;5013819;28;20172;-74
2023/03/14 08:24:31;;;;;;;7.50;4.77;;;;;;;8.79;nan;-24062.53;5029232;28;20211;-75
2023/03/14 08:26:56;;;;;;;7.70;4.93;;;;;;;8.84;nan;-24063.94;5005983;28;20220;-75
2023/03/14 08:29:22;;;;;;;7.13;4.63;;;;;;;9.21;nan;-24074.25;5014015;28;20171;-74
2023/03/14 08:31:48;;;;;;;8.63;5.07;;;;;;;9.38;nan;-24078.94;5046137;28;20180;-75
2023/03/14 08:34:14;;;;;;;8.63;4.80;;;;;;;9.48;nan;-24081.91;5013509;28;20183;-75
2023/03/14 08:36:40;;;;;;;8.70;4.87;;;;;;;9.17;nan;-24073.28;5013671;28;20176;-73
2023/03/14 08:39:07;;;;;;;9.67;4.47;;;;;;;9.10;nan;-24071.16;5028404;28;20180;-75
2023/03/14 08:41:32;;;;;;;7.90;4.97;;;;;;;9.14;nan;-24072.44;5028237;28;20272;-74
2023/03/14 08:43:58;;;;;;;8.23;5.63;;;;;;;9.33;nan;-24077.66;5012188;28;20192;-74
2023/03/14 08:46:23;;;;;;;8.43;5.30;;;;;;;8.67;nan;-24059.13;5012645;28;20190;-74
2023/03/14 08:48:48;;;;;;;8.63;4.87;;;;;;;9.40;nan;-24079.50;5013301;28;20776;-73
2023/03/14 08:51:14;;;;;;;9.43;5.33;;;;;;;9.51;nan;-24082.75;5012957;28;20176;-75
2023/03/14 08:53:40;;;;;;;10.40;6.00;;;;;;;9.62;nan;-24085.72;5011639;28;20272;-74
2023/03/14 08:56:09;;;;;;;8.17;5.03;;;;;;;9.47;nan;-24081.63;5013071;28;20168;-75
2023/03/14 08:58:37;;;;;;;8.93;4.47;;;;;;;9.44;nan;-24080.78;5013895;28;20263;-75
2023/03/14 09:01:06;;;;;;;7.37;4.87;;;;;;;9.47;nan;-24081.63;5012250;28;20602;-76
2023/03/14 09:03:31;;;;;;;9.27;5.10;;;;;;;9.91;nan;-24093.91;5013822;28;20184;-74
2023/03/14 09:06:02;;;;;;;7.23;4.43;;;;;;;9.99;nan;-24096.16;5013058;28;20666;-75
2023/03/14 09:08:29;;;;;;;8.60;4.97;;;;;;;9.94;nan;-24094.75;5005716;28;20235;-75
2023/03/14 09:10:54;;;;;;;8.73;5.37;;;;;;;9.93;nan;-24094.34;5012756;28;20670;-75
2023/03/14 09:13:19;;;;;;;9.07;5.25;;;;;;;9.47;nan;-24081.47;5012570;28;20192;-76
2023/03/14 09:15:50;;;;;;;6.17;4.63;;;;;;;9.84;nan;-24091.94;5012884;28;20220;-75
2023/03/14 09:18:16;;;;;;;12.17;5.67;;;;;;;9.85;nan;-24092.06;5013344;28;20246;-75
2023/03/14 09:20:41;;;;;;;7.87;5.27;;;;;;;9.93;nan;-24094.34;5012778;28;20647;-75
2023/03/14 09:23:07;;;;;;;10.70;5.70;;;;;;;10.06;nan;-24098.00;5012851;28;20208;-76
2023/03/14 09:25:32;;;;;;;8.10;4.88;;;;;;;10.13;nan;-24100.13;5011522;28;20278;-75
2023/03/14 09:27:58;;;;;;;8.13;4.85;;;;;;;10.32;nan;-24105.22;5027740;28;20699;-75
2023/03/14 09:30:23;;;;;;;6.53;3.85;;;;;;;10.28;nan;-24104.06;5012637;28;20175;-75
2023/03/14 09:32:48;;;;;;;7.20;4.78;;;;;;;10.33;nan;-24105.63;5011201;28;20210;-75
2023/03/14 09:35:14;;;;;;;7.53;4.57;;;;;;;9.81;nan;-24091.09;5012556;28;20675;-75
2023/03/14 09:37:39;;;;;;;7.45;4.35;;;;;;;9.98;nan;-24095.75;5027521;28;20191;-75
2023/03/14 09:40:10;;;;;;;7.57;4.20;;;;;;;10.51;nan;-24110.56;5012768;28;20172;-74
2023/03/14 09:42:38;;;;;;;12.32;4.28;;;;;;;10.89;nan;-24121.16;5011510;28;20556;-76
2023/03/14 09:45:26;;;;;;;7.75;4.15;;;;;;;10.80;nan;-24118.63;5012573;28;20243;-75
2023/03/14 09:47:54;;;;;;;8.38;4.15;;;;;;;10.89;nan;-24121.16;5018114;28;20215;-75
2023/03/14 09:50:21;;;;;;;6.07;3.80;;;;;;;10.91;nan;-24121.84;5027281;28;20219;-75
2023/03/14 09:52:49;;;;;;;7.40;4.18;;;;;;;11.01;nan;-24124.53;5027324;28;20180;-75
2023/03/14 09:55:18;;;;;;;7.40;4.35;;;;;;;11.46;nan;-24137.09;5010947;28;20275;-75
2023/03/14 09:57:48;;;;;;;8.90;3.85;;;;;;;10.82;nan;-24119.19;5002541;28;20255;-75
2023/03/14 10:00:17;;;;;;;4.43;3.28;;;;;;;10.42;nan;-24108.03;5012259;28;20639;-76
2023/03/14 10:02:55;;;;;;;9.38;3.83;;;;;;;9.78;nan;-24090.25;5011905;28;20263;-74
2023/03/14 10:05:24;;;;;;;7.78;3.45;;;;;;;10.60;nan;-24113.25;5011631;28;20288;-74
2023/03/14 10:07:50;;;;;;;6.45;3.88;;;;;;;10.84;nan;-24119.75;5027845;28;20230;-76
2023/03/14 10:10:26;;;;;;;4.63;3.28;;;;;;;10.99;nan;-24124.13;5013765;28;20256;-75
2023/03/14 10:13:16;;;;;;;5.40;3.35;;;;;;;10.52;nan;-24111.00;5012108;28;20199;-75
2023/03/14 10:15:46;;;;;;;4.97;3.58;;;;;;;11.06;nan;-24125.94;5011154;28;20667;-76
2023/03/14 10:18:12;;;;;;;4.88;2.90;;;;;;;11.45;nan;-24136.94;5010951;28;20172;-74
2023/03/14 10:20:44;;;;;;;6.00;3.55;;;;;;;11.30;nan;-24132.72;5012209;28;20549;-74
2023/03/14 10:23:12;;;;;;;5.10;3.20;;;;;;;10.86;nan;-24120.31;5011082;28;20621;-74
2023/03/14 10:25:44;;;;;;;5.80;3.30;;;;;;;10.80;nan;-24118.63;5011889;28;20251;-74
2023/03/14 10:28:33;;;;;;;6.95;3.05;;;;;;;11.48;nan;-24137.78;5011592;28;20199;-76
2023/03/14 10:30:59;;;;;;;5.07;3.17;;;;;;;11.68;nan;-24143.13;5012253;28;20168;-75
2023/03/14 10:33:36;;;;;;;5.07;3.20;;;;;;;11.51;nan;-24138.63;5010108;28;20738;-75
2023/03/14 10:36:26;;;;;;;5.47;3.20;;;;;;;12.07;nan;-24154.00;5010221;28;20179;-75
2023/03/14 10:39:04;;;;;;;4.47;3.15;;;;;;;11.94;nan;-24150.59;5010344;28;20188;-76
2023/03/14 10:41:33;;;;;;;7.25;3.08;;;;;;;11.92;nan;-24149.91;5010650;28;20179;-77
2023/03/14 10:44:00;;;;;;;5.40;3.30;;;;;;;11.98;nan;-24151.44;5012400;28;20238;-74
2023/03/14 10:46:29;;;;;;;5.05;3.20;;;;;;;12.13;nan;-24155.81;5012501;28;20168;-74
2023/03/14 10:48:55;;;;;;;4.70;3.03;;;;;;;12.46;nan;-24164.97;5020291;28;20207;-74
2023/03/14 10:51:29;;;;;;;4.57;2.97;;;;;;;12.32;nan;-24161.16;5027207;28;20218;-75
2023/03/14 10:54:13;;;;;;;4.50;2.72;;;;;;;12.56;nan;-24167.63;5021286;28;20191;-74
2023/03/14 10:56:38;;;;;;;5.45;2.90;;;;;;;12.92;nan;-24177.63;5020619;28;20310;-74
2023/03/14 10:59:12;;;;;;;3.90;2.60;;;;;;;12.03;nan;-24153.00;5020135;28;20523;-76
2023/03/14 11:02:02;;;;;;;7.55;3.45;;;;;;;12.39;nan;-24163.13;5011788;28;20647;-74
2023/03/14 11:05:10;;;;;;;2.80;2.50;;;;;;;11.91;nan;-24149.63;5027053;28;20189;-75
2023/03/14 11:07:42;;;;;;;6.35;3.33;;;;;;;11.92;nan;-24150.03;5026929;28;20222;-75
2023/03/14 11:10:30;;;;;;;5.22;2.92;;;;;;;12.35;nan;-24162.00;5014512;28;20556;-74
2023/03/14 11:13:16;;;;;;;4.60;2.70;;;;;;;12.18;nan;-24157.22;5015038;28;20172;-74
2023/03/14 11:15:51;;;;;;;4.00;2.92;;;;;;;12.18;nan;-24157.22;5031288;28;20183;-73
2023/03/14 11:18:48;;;;;;;4.32;2.70;;;;;;;11.36;nan;-24134.41;5030040;28;20183;-75
2023/03/14 11:21:52;;;;;;;4.82;2.70;;;;;;;11.76;nan;-24145.41;5030623;28;20563;-74
2023/03/14 11:24:44;;;;;;;4.35;2.50;;;;;;;11.81;nan;-24146.81;5014508;28;20200;-74
2023/03/14 11:27:20;;;;;;;7.35;3.65;;;;;;;11.78;nan;-24146.09;5014826;28;20282;-74
2023/03/14 11:29:55;;;;;;;4.30;2.67;;;;;;;12.39;nan;-24163.00;5014579;28;20655;-76
2023/03/14 11:32:44;;;;;;;4.47;3.15;;;;;;;12.68;nan;-24171.16;5014758;28;20226;-76
2023/03/14 11:35:19;;;;;;;6.82;3.20;;;;;;;12.37;nan;-24162.56;5013422;28;20179;-75
2023/03/14 11:37:54;;;;;;;6.03;3.67;;;;;;;12.69;nan;-24171.28;5014653;28;20228;-74
2023/03/14 11:40:22;;;;;;;4.03;3.08;;;;;;;12.75;nan;-24172.97;5013590;28;20670;-75
2023/03/14 11:42:56;;;;;;;4.18;3.00;;;;;;;12.73;nan;-24172.41;5014383;28;20179;-76
2023/03/14 11:45:34;;;;;;;5.95;3.05;;;;;;;12.74;nan;-24172.69;5029297;28;20236;-74
2023/03/14 11:48:06;;;;;;;4.72;2.70;;;;;;;12.57;nan;-24167.91;5014632;28;20207;-74
2023/03/14 11:50:35;;;;;;;4.25;2.90;;;;;;;12.18;nan;-24157.22;5029706;28;20596;-75
2023/03/14 11:53:22;;;;;;;5.63;3.00;;;;;;;12.44;nan;-24164.41;5014692;28;20294;-76